Time;durP1;ratioP1;P1;durP2;ratioP2;P2;SDS_P1;SDS_P2;PMS_P1;PMS_P2;Temp;Humidity;BMP_temperature;BMP_pressure;BME280_temperature;BME280_humidity;BME280_pressure;Samples;Min_cycle;Max_cycle;Signal;HPM_P1;HPM_P2
2022/12/24 00:02:01;;;;;;;2.72;0.70;;;16.50;99.90;;;;;;5032510;28;19917;-73
2022/12/24 00:04:27;;;;;;;2.45;0.70;;;16.50;99.90;;;;;;5037523;28;20044;-74
2022/12/24 00:06:53;;;;;;;1.67;0.60;;;16.50;99.90;;;;;;5038446;28;20040;-74
2022/12/24 00:09:19;;;;;;;2.47;0.60;;;16.50;99.90;;;;;;5036737;28;20080;-74
2022/12/24 00:11:45;;;;;;;2.67;1.10;;;16.50;99.90;;;;;;5032620;28;21340;-73
2022/12/24 00:14:11;;;;;;;1.38;0.57;;;16.50;99.90;;;;;;5042411;28;20064;-74
2022/12/24 00:16:37;;;;;;;2.03;0.68;;;16.50;99.90;;;;;;5040511;28;20109;-74
2022/12/24 00:19:03;;;;;;;1.38;0.60;;;16.50;99.90;;;;;;5034017;28;20116;-74
2022/12/24 00:21:29;;;;;;;2.03;0.70;;;16.50;99.90;;;;;;5039374;28;20528;-74
2022/12/24 00:23:55;;;;;;;2.78;0.50;;;16.50;99.90;;;;;;5038893;28;20061;-74
2022/12/24 00:26:21;;;;;;;2.45;0.70;;;16.50;99.90;;;;;;5041440;28;20343;-75
2022/12/24 00:28:46;;;;;;;1.02;0.50;;;16.50;99.90;;;;;;5054303;28;20040;-72
2022/12/24 00:31:16;;;;;;;1.20;0.40;;;16.50;99.90;;;;;;5027794;28;20403;-73
2022/12/24 00:33:41;;;;;;;2.85;0.60;;;16.40;99.90;;;;;;5033373;28;20072;-73
2022/12/24 00:36:08;;;;;;;1.48;0.47;;;16.50;99.90;;;;;;5036202;28;20095;-72
2022/12/24 00:38:35;;;;;;;1.80;0.70;;;16.50;99.90;;;;;;5045020;28;20020;-73
2022/12/24 00:41:02;;;;;;;1.67;0.60;;;16.40;99.90;;;;;;5037391;28;20037;-72
2022/12/24 00:43:29;;;;;;;2.92;0.55;;;16.40;99.90;;;;;;5037862;28;20037;-72
2022/12/24 00:45:58;;;;;;;2.03;0.50;;;16.40;99.90;;;;;;5036983;28;20029;-73
2022/12/24 00:48:24;;;;;;;1.48;0.50;;;16.40;99.90;;;;;;5037468;28;20026;-73
2022/12/24 00:50:50;;;;;;;1.90;0.90;;;16.40;99.90;;;;;;5051044;28;20025;-72
2022/12/24 00:53:17;;;;;;;2.28;1.02;;;16.40;99.90;;;;;;5040941;28;20513;-73
2022/12/24 00:55:43;;;;;;;1.50;0.50;;;16.40;99.90;;;;;;5035989;28;20029;-73
2022/12/24 00:58:09;;;;;;;1.70;0.73;;;16.30;99.90;;;;;;5053784;28;20765;-73
2022/12/24 01:00:35;;;;;;;1.42;0.52;;;16.40;99.90;;;;;;5036890;28;20033;-73
2022/12/24 01:03:01;;;;;;;1.45;0.50;;;16.40;99.90;;;;;;5038914;28;20045;-73
2022/12/24 01:05:27;;;;;;;2.08;0.60;;;16.40;99.90;;;;;;5036665;28;20415;-73
2022/12/24 01:07:53;;;;;;;1.88;1.10;;;16.40;99.90;;;;;;5036517;28;20529;-73
2022/12/24 01:10:19;;;;;;;1.52;0.50;;;16.40;99.90;;;;;;5035361;28;20143;-73
2022/12/24 01:12:47;;;;;;;1.60;0.60;;;16.40;99.90;;;;;;5037236;28;20045;-73
2022/12/24 01:15:14;;;;;;;2.15;0.68;;;16.40;99.90;;;;;;5035382;28;20041;-74
2022/12/24 01:17:40;;;;;;;2.05;0.60;;;16.40;99.90;;;;;;5050285;28;20112;-73
2022/12/24 01:20:10;;;;;;;1.83;0.68;;;16.40;99.90;;;;;;5039790;28;20048;-73
2022/12/24 01:22:36;;;;;;;1.98;0.60;;;16.30;99.90;;;;;;5034233;28;20052;-74
2022/12/24 01:25:01;;;;;;;2.00;0.70;;;16.30;99.90;;;;;;5034547;28;20041;-73
2022/12/24 01:27:27;;;;;;;2.08;0.57;;;16.40;99.90;;;;;;5034008;28;20033;-73
2022/12/24 01:29:53;;;;;;;1.77;0.60;;;16.40;99.90;;;;;;5035969;28;20049;-73
2022/12/24 01:32:19;;;;;;;1.60;0.55;;;16.30;99.90;;;;;;5035798;28;20029;-72
2022/12/24 01:34:45;;;;;;;1.92;0.57;;;16.40;99.90;;;;;;5038582;28;20045;-73
2022/12/24 01:37:11;;;;;;;2.55;0.90;;;16.40;99.90;;;;;;5034244;28;20048;-73
2022/12/24 01:39:37;;;;;;;1.88;0.60;;;16.40;99.90;;;;;;5034499;28;20037;-73
2022/12/24 01:45:39;;;;;;;1.67;0.57;;;16.40;99.90;;;;;;5048521;28;20815;-72
2022/12/24 01:48:17;;;;;;;1.73;0.60;;;16.50;99.90;;;;;;5051876;28;20099;-73
2022/12/24 01:50:44;;;;;;;2.25;0.80;;;16.50;99.90;;;;;;5053045;28;20040;-73
2022/12/24 01:53:12;;;;;;;1.52;0.60;;;16.50;99.90;;;;;;5035273;28;20041;-74
2022/12/24 01:55:39;;;;;;;2.90;0.98;;;16.40;99.90;;;;;;5039291;28;20467;-73
2022/12/24 01:58:07;;;;;;;2.22;0.60;;;16.40;99.90;;;;;;5034222;28;20741;-73
2022/12/24 02:00:33;;;;;;;1.55;0.60;;;16.30;99.90;;;;;;5036648;28;20037;-72
2022/12/24 02:02:59;;;;;;;1.60;0.50;;;16.30;99.90;;;;;;5051528;28;20109;-72
2022/12/24 02:05:49;;;;;;;1.50;0.57;;;16.30;99.90;;;;;;5029689;28;20166;-72
2022/12/24 02:08:16;;;;;;;1.67;0.52;;;16.30;99.90;;;;;;5018166;28;20048;-73
2022/12/24 02:10:42;;;;;;;3.33;0.60;;;16.20;99.90;;;;;;5044136;28;20032;-73
2022/12/24 02:13:08;;;;;;;2.05;0.65;;;16.20;99.90;;;;;;5036538;28;20041;-73
2022/12/24 02:16:14;;;;;;;2.20;0.70;;;16.20;99.90;;;;;;5041203;28;20045;-73
2022/12/24 02:18:55;;;;;;;2.13;0.80;;;16.20;99.90;;;;;;5020923;28;20579;-73
2022/12/24 02:21:36;;;;;;;1.35;0.80;;;16.20;99.90;;;;;;5036663;28;20166;-73
2022/12/24 02:24:53;;;;;;;1.52;0.40;;;16.00;99.90;;;;;;5039975;28;20427;-73
2022/12/24 02:27:41;;;;;;;1.45;0.60;;;16.00;99.90;;;;;;5035752;28;20075;-72
2022/12/24 02:30:12;;;;;;;1.77;0.80;;;16.10;99.90;;;;;;5038644;28;20047;-72
2022/12/24 02:33:22;;;;;;;2.55;0.70;;;16.10;99.90;;;;;;5038598;28;20603;-73
2022/12/24 02:36:19;;;;;;;1.85;0.63;;;16.00;99.90;;;;;;4996591;28;20042;-72
2022/12/24 02:39:01;;;;;;;2.38;0.80;;;16.00;99.90;;;;;;4997138;28;20105;-74
2022/12/24 02:42:17;;;;;;;3.17;0.45;;;16.00;99.90;;;;;;5026299;28;20083;-73
2022/12/24 02:44:27;;;;;;;2.75;0.68;;;15.90;99.90;;;;;;5026294;28;20036;-74
2022/12/24 02:46:55;;;;;;;4.40;0.70;;;15.90;99.90;;;;;;5042238;28;20033;-74
2022/12/24 02:49:21;;;;;;;1.92;0.80;;;15.80;99.90;;;;;;5039964;28;20060;-73
2022/12/24 02:51:47;;;;;;;1.70;0.70;;;15.90;99.90;;;;;;5055512;28;20091;-73
2022/12/24 02:54:14;;;;;;;1.65;0.80;;;15.90;99.90;;;;;;5037129;28;20419;-73
2022/12/24 02:56:52;;;;;;;2.15;0.75;;;15.90;99.90;;;;;;5017452;28;20194;-73
2022/12/24 02:59:39;;;;;;;2.65;0.68;;;15.90;99.90;;;;;;5037998;28;20164;-73
2022/12/24 03:02:12;;;;;;;1.38;0.50;;;15.90;99.90;;;;;;5038119;28;20030;-74
2022/12/24 03:04:59;;;;;;;2.33;0.75;;;15.90;99.90;;;;;;5038198;28;20090;-73
2022/12/24 03:07:55;;;;;;;1.67;0.70;;;15.80;99.90;;;;;;5035523;28;20362;-72
2022/12/24 03:10:59;;;;;;;3.13;0.68;;;15.80;99.90;;;;;;5040749;28;20041;-73
2022/12/24 03:13:27;;;;;;;3.33;0.82;;;15.80;99.90;;;;;;5039225;28;20372;-73
2022/12/24 03:15:53;;;;;;;2.15;0.80;;;15.70;99.90;;;;;;5036068;28;20195;-73
2022/12/24 03:18:24;;;;;;;2.92;0.90;;;15.70;99.90;;;;;;5048299;28;20040;-74
2022/12/24 03:21:13;;;;;;;2.05;0.50;;;15.50;99.90;;;;;;5055932;28;20563;-74
2022/12/24 03:23:39;;;;;;;2.70;1.00;;;15.50;99.90;;;;;;5030381;28;21166;-73
2022/12/24 03:26:08;;;;;;;2.38;0.65;;;15.40;99.90;;;;;;5039822;28;20044;-74
2022/12/24 03:28:37;;;;;;;2.25;0.85;;;15.20;99.90;;;;;;5039423;28;20902;-73
2022/12/24 03:31:04;;;;;;;4.38;0.90;;;15.20;99.90;;;;;;5052338;28;20029;-73
2022/12/24 03:33:30;;;;;;;;;;;15.10;99.90;;;;;;5053901;28;20587;-74
2022/12/24 03:35:56;;;;;;;3.05;1.00;;;15.10;99.90;;;;;;5038569;28;20007;-73
2022/12/24 03:38:22;;;;;;;2.80;0.70;;;15.10;99.90;;;;;;5044106;28;20036;-73
2022/12/24 03:40:48;;;;;;;2.20;0.60;;;15.30;99.90;;;;;;5037150;28;20055;-73
2022/12/24 03:43:14;;;;;;;3.35;1.02;;;15.30;99.90;;;;;;5036695;28;20092;-73
2022/12/24 03:45:41;;;;;;;2.08;0.77;;;15.30;99.90;;;;;;5039026;28;20071;-73
2022/12/24 03:48:07;;;;;;;2.60;0.90;;;15.30;99.90;;;;;;5052643;28;20037;-74
2022/12/24 03:50:33;;;;;;;2.03;0.77;;;15.30;99.90;;;;;;5051384;28;20045;-73
2022/12/24 03:52:59;;;;;;;2.42;0.90;;;15.30;99.90;;;;;;5039822;28;20531;-73
2022/12/24 03:55:26;;;;;;;2.60;0.90;;;15.20;99.90;;;;;;5037813;28;20037;-73
2022/12/24 03:57:52;;;;;;;2.90;1.10;;;15.20;99.90;;;;;;5039388;28;20404;-73
2022/12/24 04:00:19;;;;;;;3.72;0.95;;;15.20;99.90;;;;;;5040109;28;20504;-72
2022/12/24 04:02:44;;;;;;;2.47;0.85;;;15.20;99.90;;;;;;5040104;28;20045;-73
2022/12/24 04:05:15;;;;;;;2.42;0.77;;;15.30;99.90;;;;;;5040175;28;20044;-72
2022/12/24 04:07:41;;;;;;;2.13;0.75;;;15.40;99.90;;;;;;5039175;28;20040;-73
2022/12/24 04:10:08;;;;;;;2.10;0.80;;;15.40;99.90;;;;;;5035255;28;20053;-73
2022/12/24 04:12:34;;;;;;;2.92;0.88;;;15.40;99.90;;;;;;5037400;28;20056;-73
2022/12/24 04:15:00;;;;;;;2.47;0.80;;;15.40;99.90;;;;;;5040135;28;20052;-73
2022/12/24 04:17:26;;;;;;;3.90;0.80;;;15.30;99.90;;;;;;5043592;28;20122;-73
2022/12/24 04:19:52;;;;;;;3.35;0.90;;;15.30;99.90;;;;;;5039839;28;20037;-73
2022/12/24 04:22:18;;;;;;;2.08;0.60;;;15.40;99.90;;;;;;5038064;28;20036;-73
2022/12/24 04:24:45;;;;;;;2.65;1.15;;;15.50;99.90;;;;;;5038086;28;20048;-73
2022/12/24 04:27:13;;;;;;;3.47;1.10;;;15.50;99.90;;;;;;5051850;28;20033;-73
2022/12/24 04:29:39;;;;;;;2.58;1.00;;;15.40;99.90;;;;;;5036895;28;20041;-73
2022/12/24 04:32:05;;;;;;;4.53;0.80;;;15.30;99.90;;;;;;5035577;28;20190;-73
2022/12/24 04:34:31;;;;;;;2.67;1.00;;;15.20;99.90;;;;;;5052403;28;20068;-73
2022/12/24 04:36:57;;;;;;;2.67;1.05;;;15.20;99.90;;;;;;5036208;28;20504;-73
2022/12/24 04:39:23;;;;;;;2.45;1.20;;;15.20;99.90;;;;;;5037450;28;20045;-73
2022/12/24 04:41:49;;;;;;;3.65;1.27;;;15.20;99.90;;;;;;5049940;28;20199;-73
2022/12/24 04:44:15;;;;;;;2.95;0.80;;;15.20;99.90;;;;;;5038132;28;20040;-73
2022/12/24 04:46:41;;;;;;;2.65;0.98;;;15.10;99.90;;;;;;5051410;28;20057;-73
2022/12/24 04:49:07;;;;;;;3.33;1.00;;;15.10;99.90;;;;;;5052224;28;20063;-73
2022/12/24 04:51:34;;;;;;;2.92;1.08;;;15.00;99.90;;;;;;5036904;28;20120;-73
2022/12/24 04:54:01;;;;;;;3.30;1.17;;;14.90;99.90;;;;;;5038036;28;20048;-72
2022/12/24 04:56:29;;;;;;;3.00;1.23;;;14.80;99.90;;;;;;5035951;28;20484;-72
2022/12/24 04:58:55;;;;;;;2.88;1.10;;;14.80;99.90;;;;;;5038612;28;20039;-73
2022/12/24 05:01:23;;;;;;;3.13;1.40;;;14.70;99.90;;;;;;5035191;28;20086;-72
2022/12/24 05:03:50;;;;;;;2.88;1.00;;;14.60;99.90;;;;;;5040682;28;20033;-73
2022/12/24 05:06:19;;;;;;;2.53;1.00;;;14.50;99.90;;;;;;5052743;28;20167;-73
2022/12/24 05:08:45;;;;;;;3.35;1.30;;;14.50;99.90;;;;;;5037809;28;20128;-72
2022/12/24 05:11:13;;;;;;;2.92;1.00;;;14.50;99.90;;;;;;5033351;28;20163;-72
2022/12/24 05:13:40;;;;;;;3.00;1.02;;;14.50;99.90;;;;;;5037854;28;20040;-73
2022/12/24 05:16:07;;;;;;;3.38;1.15;;;14.60;99.90;;;;;;5038200;28;20025;-73
2022/12/24 05:18:33;;;;;;;2.88;1.25;;;14.70;99.90;;;;;;5040891;28;20117;-73
2022/12/24 05:20:59;;;;;;;4.05;1.90;;;14.70;99.90;;;;;;5054062;28;20426;-72
2022/12/24 05:26:21;;;;;;;2.85;1.10;;;14.70;99.90;;;;;;5035013;28;20040;-73
2022/12/24 05:28:52;;;;;;;3.50;1.50;;;14.80;99.90;;;;;;5042096;28;20099;-73
2022/12/24 05:31:19;;;;;;;4.35;1.38;;;14.70;99.90;;;;;;5041965;28;20029;-72
2022/12/24 05:33:45;;;;;;;4.53;1.70;;;14.70;99.90;;;;;;5038417;28;20034;-73
2022/12/24 05:36:11;;;;;;;4.28;1.58;;;14.70;99.90;;;;;;5038867;28;20087;-74
2022/12/24 05:38:37;;;;;;;5.07;1.42;;;14.60;99.90;;;;;;5039561;28;20029;-72
2022/12/24 05:41:03;;;;;;;3.60;1.42;;;14.60;99.90;;;;;;5039514;28;20578;-73
2022/12/24 05:43:31;;;;;;;3.65;1.35;;;14.60;99.90;;;;;;5040351;28;20497;-73
2022/12/24 05:46:02;;;;;;;3.92;1.52;;;14.60;99.90;;;;;;5045936;28;20033;-73
2022/12/24 05:48:28;;;;;;;4.28;1.70;;;14.60;99.90;;;;;;5043641;28;20047;-73
2022/12/24 05:50:54;;;;;;;3.90;1.70;;;14.50;99.90;;;;;;5056697;28;20106;-73
2022/12/24 05:53:22;;;;;;;3.88;1.80;;;14.50;99.90;;;;;;5037909;28;20033;-73
2022/12/24 05:55:48;;;;;;;5.00;2.33;;;14.50;99.90;;;;;;5058542;28;20048;-72
2022/12/24 05:58:14;;;;;;;4.15;1.65;;;14.40;99.90;;;;;;5040190;28;20044;-72
2022/12/24 06:00:41;;;;;;;5.05;1.48;;;14.40;99.90;;;;;;5043468;28;20044;-72
2022/12/24 06:03:07;;;;;;;5.38;1.98;;;14.50;99.90;;;;;;5041263;28;20030;-73
2022/12/24 06:05:32;;;;;;;4.70;2.13;;;14.50;99.90;;;;;;5042644;28;20464;-73
2022/12/24 06:08:00;;;;;;;3.95;1.63;;;14.50;99.90;;;;;;5057015;28;20034;-73
2022/12/24 06:10:25;;;;;;;3.63;1.50;;;14.50;99.90;;;;;;5043644;28;20044;-73
2022/12/24 06:12:51;;;;;;;4.68;1.45;;;14.60;99.90;;;;;;5043582;28;20044;-73
2022/12/24 06:15:17;;;;;;;3.38;1.63;;;14.60;99.90;;;;;;5041038;28;20037;-73
2022/12/24 06:17:43;;;;;;;3.80;1.58;;;14.60;99.90;;;;;;5044410;28;20061;-74
2022/12/24 06:20:09;;;;;;;4.00;1.30;;;14.60;99.90;;;;;;5033782;28;20706;-72
2022/12/24 06:22:35;;;;;;;3.13;1.35;;;14.70;99.90;;;;;;5043940;28;20465;-74
2022/12/24 06:25:00;;;;;;;10.23;2.03;;;14.70;99.90;;;;;;5044864;28;20408;-73
2022/12/24 06:27:26;;;;;;;2.88;1.35;;;14.70;99.90;;;;;;5043128;28;20029;-72
2022/12/24 06:29:52;;;;;;;3.65;1.42;;;14.80;99.90;;;;;;5044884;28;20041;-73
2022/12/24 06:32:19;;;;;;;4.75;1.48;;;14.70;99.90;;;;;;5039224;28;20041;-73
2022/12/24 06:34:45;;;;;;;4.35;1.80;;;14.70;99.90;;;;;;5040458;28;20067;-72
2022/12/24 06:37:17;;;;;;;3.80;1.70;;;14.70;99.90;;;;;;5029510;28;20068;-73
2022/12/24 06:39:45;;;;;;;3.88;1.50;;;14.70;99.90;;;;;;5038519;28;20136;-74
2022/12/24 06:42:11;;;;;;;3.65;1.48;;;14.70;99.90;;;;;;5042577;28;20056;-74
2022/12/24 06:44:37;;;;;;;2.70;1.20;;;14.80;99.90;;;;;;5040037;28;20037;-73
2022/12/24 06:47:03;;;;;;;3.28;1.40;;;14.80;99.90;;;;;;5039903;28;20062;-73
2022/12/24 06:49:28;;;;;;;4.03;1.27;;;14.80;99.90;;;;;;5053719;28;20102;-73
2022/12/24 06:51:54;;;;;;;3.92;1.75;;;14.90;99.90;;;;;;5044422;28;20044;-73
2022/12/24 06:54:20;;;;;;;4.60;1.83;;;14.80;99.90;;;;;;5053688;28;20056;-74
2022/12/24 06:56:46;;;;;;;5.55;1.95;;;14.60;99.90;;;;;;5043907;28;20041;-73
2022/12/24 06:59:12;;;;;;;3.80;1.33;;;14.70;99.90;;;;;;5042087;28;20037;-73
2022/12/24 07:01:39;;;;;;;4.32;1.42;;;14.80;99.90;;;;;;5046299;28;20033;-73
2022/12/24 07:04:05;;;;;;;3.15;1.33;;;15.00;99.90;;;;;;5029426;28;20021;-74
2022/12/24 07:06:31;;;;;;;2.83;1.17;;;15.10;99.90;;;;;;5042555;28;20550;-73
2022/12/24 07:08:57;;;;;;;4.88;1.35;;;15.10;99.90;;;;;;5042550;28;20537;-72
2022/12/24 07:11:24;;;;;;;4.03;1.83;;;14.90;99.90;;;;;;5043408;28;20037;-73
2022/12/24 07:13:50;;;;;;;5.05;2.05;;;14.70;99.90;;;;;;5044197;28;20493;-73
2022/12/24 07:16:16;;;;;;;3.67;1.52;;;14.60;99.90;;;;;;5037568;28;20045;-74
2022/12/24 07:18:42;;;;;;;6.20;1.83;;;14.50;99.90;;;;;;5040118;28;20037;-72
2022/12/24 07:21:09;;;;;;;4.20;1.48;;;14.60;99.90;;;;;;5037974;28;20102;-73
2022/12/24 07:23:35;;;;;;;3.13;1.20;;;14.70;99.90;;;;;;5057123;28;20500;-74
2022/12/24 07:26:06;;;;;;;3.83;1.50;;;14.80;99.90;;;;;;5038627;28;20068;-73
2022/12/24 07:28:32;;;;;;;5.57;1.95;;;14.70;99.90;;;;;;5037696;28;20029;-75
2022/12/24 07:30:58;;;;;;;4.20;2.20;;;14.50;99.90;;;;;;5052601;28;20484;-74
2022/12/24 07:33:25;;;;;;;6.90;2.15;;;14.40;99.90;;;;;;5040510;28;20065;-74
2022/12/24 07:36:02;;;;;;;4.50;2.03;;;14.40;99.90;;;;;;5057826;28;20366;-74
2022/12/24 07:38:29;;;;;;;3.55;1.67;;;14.40;99.90;;;;;;5039372;28;20442;-74
2022/12/24 07:40:55;;;;;;;4.00;1.90;;;14.40;99.90;;;;;;5040779;28;20044;-74
2022/12/24 07:43:21;;;;;;;4.38;1.52;;;14.50;99.90;;;;;;5039928;28;20066;-75
2022/12/24 07:45:47;;;;;;;4.43;1.50;;;14.60;99.90;;;;;;5055274;28;20044;-73
2022/12/24 07:48:13;;;;;;;3.58;1.70;;;14.60;99.90;;;;;;5042433;28;20053;-73
2022/12/24 07:50:39;;;;;;;3.60;1.20;;;14.60;99.90;;;;;;5029474;28;20048;-74
2022/12/24 07:53:05;;;;;;;3.65;1.70;;;14.60;99.90;;;;;;5056073;28;20111;-73
2022/12/24 07:55:31;;;;;;;3.55;1.50;;;14.70;99.90;;;;;;5056128;28;20045;-73
2022/12/24 07:57:57;;;;;;;3.45;1.33;;;14.70;99.90;;;;;;5052836;28;20576;-74
2022/12/24 08:00:22;;;;;;;4.95;1.60;;;14.80;99.90;;;;;;5036586;28;20052;-74
2022/12/24 08:02:48;;;;;;;5.05;1.90;;;14.90;99.90;;;;;;5041547;28;20413;-74
2022/12/24 08:05:14;;;;;;;4.90;1.45;;;14.90;99.90;;;;;;5039571;28;20075;-73
2022/12/24 08:07:40;;;;;;;5.43;1.60;;;14.90;99.90;;;;;;5053943;28;20036;-74
2022/12/24 08:10:09;;;;;;;3.47;1.60;;;14.90;99.90;;;;;;5054031;28;20045;-74
2022/12/24 08:12:37;;;;;;;3.97;1.40;;;14.90;99.90;;;;;;5039183;28;20052;-73
2022/12/24 08:15:03;;;;;;;5.72;1.77;;;15.00;99.90;;;;;;5027122;28;20445;-74
2022/12/24 08:17:28;;;;;;;4.05;1.73;;;16.00;99.90;;;;;;5041962;28;20055;-74
2022/12/24 08:19:54;;;;;;;3.00;1.70;;;16.20;99.90;;;;;;5039807;28;20404;-74
2022/12/24 08:22:20;;;;;;;4.55;2.17;;;17.00;99.90;;;;;;5036476;28;20045;-75
2022/12/24 08:24:46;;;;;;;4.10;1.75;;;17.70;99.90;;;;;;5043378;28;20040;-73
2022/12/24 08:27:11;;;;;;;4.20;1.73;;;18.20;99.90;;;;;;5040281;28;20495;-73
2022/12/24 08:29:37;;;;;;;5.90;1.70;;;18.50;99.90;;;;;;5055741;28;20076;-74
2022/12/24 08:32:03;;;;;;;3.60;1.42;;;18.40;99.90;;;;;;5035254;28;20041;-74
2022/12/24 08:34:29;;;;;;;4.07;2.25;;;18.50;99.80;;;;;;5054223;28;20041;-73
2022/12/24 08:36:55;;;;;;;4.32;1.63;;;18.80;99.90;;;;;;5038423;28;20025;-74
2022/12/24 08:39:21;;;;;;;3.88;1.70;;;18.70;99.60;;;;;;5041082;28;20040;-74
2022/12/24 08:41:47;;;;;;;3.72;1.33;;;18.50;99.70;;;;;;5053070;28;20047;-74
2022/12/24 08:44:12;;;;;;;3.70;1.73;;;17.80;99.90;;;;;;5052754;28;20083;-73
2022/12/24 08:46:38;;;;;;;4.28;1.63;;;18.90;99.60;;;;;;5039954;28;20685;-72
2022/12/24 08:49:04;;;;;;;3.10;1.35;;;19.30;98.90;;;;;;5041825;28;20029;-73
2022/12/24 08:51:30;;;;;;;8.50;4.38;;;18.70;99.00;;;;;;5036659;28;20049;-74
2022/12/24 08:53:56;;;;;;;3.58;1.38;;;18.40;99.40;;;;;;5040403;28;20040;-73
2022/12/24 08:56:22;;;;;;;3.70;1.83;;;18.10;99.30;;;;;;5049043;28;21529;-74
2022/12/24 08:58:48;;;;;;;3.47;1.73;;;17.70;99.90;;;;;;5053394;28;20044;-74
2022/12/24 09:01:17;;;;;;;;;;;17.60;99.90;;;;;;5038415;28;20033;-73
2022/12/24 09:03:43;;;;;;;3.90;1.55;;;17.40;99.90;;;;;;5038115;28;19963;-74
2022/12/24 09:06:09;;;;;;;2.92;1.10;;;17.70;99.90;;;;;;5042326;28;20460;-75
2022/12/24 09:08:35;;;;;;;3.65;1.20;;;17.60;99.60;;;;;;5037770;28;20084;-73
2022/12/24 09:11:06;;;;;;;3.53;1.33;;;17.60;99.60;;;;;;5050213;28;20088;-73
2022/12/24 09:13:32;;;;;;;3.30;1.08;;;17.80;99.20;;;;;;5016332;28;20148;-73
2022/12/24 09:15:58;;;;;;;3.15;1.35;;;17.70;99.10;;;;;;5035815;28;20036;-74
2022/12/24 09:18:25;;;;;;;3.00;1.40;;;17.60;99.50;;;;;;5050987;28;20669;-74
2022/12/24 09:20:50;;;;;;;16.98;9.52;;;17.50;99.90;;;;;;5038921;28;20377;-72
2022/12/24 09:23:16;;;;;;;4.45;1.80;;;17.70;99.90;;;;;;5053570;28;20160;-74
2022/12/24 09:25:43;;;;;;;4.10;1.70;;;17.90;99.90;;;;;;5017611;28;20048;-75
2022/12/24 09:28:09;;;;;;;3.67;1.77;;;18.20;99.90;;;;;;5038378;28;20144;-73
2022/12/24 09:30:36;;;;;;;3.88;1.48;;;18.70;99.50;;;;;;5039137;28;20021;-73
2022/12/24 09:33:02;;;;;;;3.83;1.50;;;18.40;98.60;;;;;;5041108;28;20058;-73
2022/12/24 09:35:28;;;;;;;3.35;1.23;;;18.50;99.00;;;;;;5036328;28;20083;-72
2022/12/24 09:38:01;;;;;;;4.55;1.55;;;18.60;98.50;;;;;;5036800;28;20420;-74
2022/12/24 09:40:46;;;;;;;4.18;1.60;;;18.50;98.90;;;;;;5050955;28;20400;-73
2022/12/24 09:43:21;;;;;;;2.60;1.10;;;18.60;98.30;;;;;;5052903;28;20037;-74
2022/12/24 09:46:22;;;;;;;3.75;1.30;;;18.70;97.90;;;;;;5034291;28;20489;-73
2022/12/24 09:49:04;;;;;;;5.05;1.33;;;19.00;97.80;;;;;;5010979;28;20056;-73
2022/12/24 09:51:42;;;;;;;3.30;1.60;;;19.50;97.20;;;;;;5035065;28;20037;-73
2022/12/24 09:54:40;;;;;;;3.10;1.30;;;19.80;97.20;;;;;;5039321;28;20045;-74
2022/12/24 09:57:34;;;;;;;3.70;1.50;;;19.50;97.50;;;;;;5004887;28;20064;-74
2022/12/24 10:00:01;;;;;;;3.45;1.70;;;19.80;97.30;;;;;;5037953;28;20037;-73
2022/12/24 10:02:27;;;;;;;2.95;1.30;;;20.20;97.10;;;;;;5033343;28;20065;-74
2022/12/24 10:04:54;;;;;;;5.82;1.40;;;20.30;96.70;;;;;;5040115;28;20577;-73
2022/12/24 10:07:52;;;;;;;3.75;1.50;;;20.40;96.60;;;;;;5032825;28;20036;-73
2022/12/24 10:10:35;;;;;;;3.40;1.42;;;20.70;96.50;;;;;;5040024;28;20573;-74
2022/12/24 10:13:24;;;;;;;4.63;2.38;;;21.00;95.90;;;;;;5037970;28;20067;-74
2022/12/24 10:16:11;;;;;;;5.38;1.80;;;20.80;96.00;;;;;;5035232;28;20092;-73
2022/12/24 10:19:21;;;;;;;4.03;1.58;;;21.20;96.10;;;;;;5037795;28;20033;-74
2022/12/24 10:22:01;;;;;;;3.13;1.40;;;21.50;95.60;;;;;;5007002;28;20038;-73
2022/12/24 10:24:35;;;;;;;3.20;1.40;;;21.20;94.90;;;;;;5034582;28;20907;-73
2022/12/24 10:27:14;;;;;;;2.88;1.15;;;20.80;95.40;;;;;;5035515;28;20131;-73
2022/12/24 10:29:45;;;;;;;4.43;1.25;;;21.10;95.00;;;;;;5031070;28;20037;-74
2022/12/24 10:32:24;;;;;;;2.70;1.30;;;21.60;94.90;;;;;;5052777;28;20045;-75
2022/12/24 10:34:59;;;;;;;3.63;1.38;;;22.00;94.60;;;;;;5043756;28;20040;-75
2022/12/24 10:37:27;;;;;;;2.70;1.13;;;22.00;93.90;;;;;;5038291;28;20049;-75
2022/12/24 10:39:55;;;;;;;4.25;1.38;;;21.40;94.50;;;;;;5059159;28;20115;-75
2022/12/24 10:42:25;;;;;;;2.63;1.30;;;21.60;94.50;;;;;;5042885;28;20534;-75
2022/12/24 10:45:00;;;;;;;3.33;1.98;;;21.70;94.50;;;;;;5038558;28;20043;-74
2022/12/24 10:47:27;;;;;;;4.20;1.33;;;22.60;94.20;;;;;;5043151;28;20037;-75
2022/12/24 10:50:17;;;;;;;3.67;2.13;;;22.60;94.00;;;;;;5040734;28;20041;-74
2022/12/24 10:52:44;;;;;;;3.20;2.05;;;22.80;93.50;;;;;;5040115;28;20033;-75
2022/12/24 10:55:19;;;;;;;3.95;2.15;;;22.40;94.10;;;;;;5056275;28;20037;-75
2022/12/24 10:57:55;;;;;;;3.60;2.17;;;21.80;94.60;;;;;;5054900;28;20037;-75
2022/12/24 11:00:23;;;;;;;5.00;2.80;;;21.60;94.70;;;;;;5045380;28;20054;-74
2022/12/24 11:03:21;;;;;;;3.40;2.10;;;21.80;94.30;;;;;;5046789;28;20046;-75
2022/12/24 11:06:20;;;;;;;3.58;1.60;;;22.10;94.70;;;;;;5045063;28;20051;-75
2022/12/24 11:08:46;;;;;;;2.53;1.30;;;22.30;94.40;;;;;;5039438;28;20042;-75
2022/12/24 11:11:20;;;;;;;3.35;1.30;;;22.80;93.90;;;;;;5043697;28;20038;-75
2022/12/24 11:13:55;;;;;;;3.40;2.58;;;22.40;93.50;;;;;;5041101;28;20036;-76
2022/12/24 11:16:34;;;;;;;3.67;2.47;;;22.50;93.80;;;;;;5041088;28;20481;-76
2022/12/24 11:19:14;;;;;;;5.60;2.67;;;23.30;93.60;;;;;;5055531;28;20029;-74
2022/12/24 11:21:40;;;;;;;3.45;1.60;;;23.60;92.90;;;;;;5047284;28;20024;-73
2022/12/24 11:24:12;;;;;;;3.25;1.85;;;24.10;93.00;;;;;;5044183;28;20043;-75
2022/12/24 11:26:41;;;;;;;4.63;2.38;;;23.40;92.70;;;;;;5061463;28;20075;-74
2022/12/24 11:29:27;;;;;;;3.30;2.00;;;24.10;93.00;;;;;;5033807;28;20045;-75
2022/12/24 11:32:21;;;;;;;4.13;2.30;;;23.20;92.80;;;;;;5052847;28;20025;-74
2022/12/24 11:34:48;;;;;;;3.38;1.80;;;24.00;92.60;;;;;;5031394;28;21072;-75
2022/12/24 11:37:25;;;;;;;4.25;2.15;;;24.30;92.50;;;;;;5056654;28;20045;-75
2022/12/24 11:39:54;;;;;;;3.10;2.20;;;24.70;91.90;;;;;;5039674;28;20043;-75
2022/12/24 11:42:35;;;;;;;3.85;2.22;;;24.80;91.90;;;;;;5036993;28;20097;-74
2022/12/24 11:45:16;;;;;;;3.88;2.10;;;24.80;92.10;;;;;;5055815;28;20041;-74
2022/12/24 11:47:42;;;;;;;3.63;2.40;;;24.00;92.10;;;;;;5042723;28;20037;-75
2022/12/24 11:50:30;;;;;;;3.25;2.15;;;24.40;92.10;;;;;;5042758;28;20052;-76
2022/12/24 11:53:01;;;;;;;3.67;2.45;;;23.70;92.50;;;;;;5044360;28;20052;-74
2022/12/24 11:55:55;;;;;;;4.35;2.20;;;24.70;92.00;;;;;;5042573;28;20029;-74
2022/12/24 11:58:45;;;;;;;3.60;2.50;;;24.60;91.70;;;;;;5040276;28;20044;-74
2022/12/24 12:01:32;;;;;;;2.80;1.55;;;24.50;91.90;;;;;;5057488;28;20072;-77
2022/12/24 12:04:02;;;;;;;4.60;2.83;;;24.60;91.70;;;;;;5041052;28;20044;-75
2022/12/24 12:06:31;;;;;;;4.03;2.00;;;25.30;91.30;;;;;;5041772;28;20059;-74
2022/12/24 12:09:05;;;;;;;3.42;2.13;;;24.90;91.70;;;;;;5054255;28;20033;-75
2022/12/24 12:11:33;;;;;;;3.88;3.17;;;24.60;91.80;;;;;;5053588;28;20028;-74
2022/12/24 12:14:01;;;;;;;3.58;2.08;;;25.10;91.40;;;;;;5038286;28;20021;-75
2022/12/24 12:16:59;;;;;;;3.13;2.08;;;25.60;91.20;;;;;;5035260;28;20116;-75
2022/12/24 12:19:31;;;;;;;3.50;2.70;;;25.30;91.10;;;;;;5040250;28;20094;-75
2022/12/24 12:21:58;;;;;;;;;;;25.30;91.20;;;;;;5038201;28;20722;-75
2022/12/24 12:24:28;;;;;;;4.68;3.40;;;25.30;91.10;;;;;;5054040;28;19917;-76
2022/12/24 12:27:27;;;;;;;5.47;2.28;;;24.30;91.10;;;;;;5034281;28;20064;-74
2022/12/24 12:30:19;;;;;;;4.32;2.60;;;25.00;91.30;;;;;;5034515;28;20041;-75
2022/12/24 12:33:10;;;;;;;3.70;2.10;;;25.00;91.20;;;;;;5039884;28;20136;-76
2022/12/24 12:35:42;;;;;;;3.38;2.08;;;25.30;91.10;;;;;;5054315;28;20522;-74
2022/12/24 12:38:34;;;;;;;;;;;25.30;91.20;;;;;;5025374;28;20406;-75
2022/12/24 12:41:17;;;;;;;4.32;3.05;;;26.00;90.60;;;;;;5035212;28;19924;-75
2022/12/24 12:44:01;;;;;;;4.97;3.65;;;25.10;91.60;;;;;;5038149;28;20121;-74
2022/12/24 12:46:58;;;;;;;4.90;3.35;;;25.80;91.90;;;;;;5041892;28;20029;-75
2022/12/24 12:49:42;;;;;;;5.80;3.60;;;25.20;92.20;;;;;;5035569;28;20044;-74
2022/12/24 12:52:17;;;;;;;5.22;3.65;;;24.50;92.40;;;;;;5036220;28;20045;-74
2022/12/24 12:55:01;;;;;;;5.38;4.40;;;25.10;92.70;;;;;;5052814;28;20060;-74
2022/12/24 12:57:35;;;;;;;7.07;3.78;;;23.90;93.40;;;;;;5025867;28;20075;-74
2022/12/24 13:00:12;;;;;;;5.03;2.90;;;24.40;93.50;;;;;;5039334;28;20057;-74
2022/12/24 13:02:50;;;;;;;6.68;2.80;;;25.80;92.40;;;;;;5043507;28;20395;-77
2022/12/24 13:06:03;;;;;;;4.65;3.28;;;26.00;92.50;;;;;;5034006;28;20045;-75
2022/12/24 13:08:58;;;;;;;5.55;3.53;;;26.10;92.20;;;;;;5049833;28;20183;-74
2022/12/24 13:11:53;;;;;;;6.60;3.75;;;26.30;92.20;;;;;;5050917;28;20065;-75
2022/12/24 13:14:27;;;;;;;4.28;3.08;;;25.40;92.50;;;;;;5034627;28;20029;-76
2022/12/24 13:17:28;;;;;;;4.95;3.47;;;25.10;92.90;;;;;;5039627;28;20033;-75